Time;durP1;ratioP1;P1;durP2;ratioP2;P2;SDS_P1;SDS_P2;PMS_P1;PMS_P2;Temp;Humidity;BMP_temperature;BMP_pressure;BME280_temperature;BME280_humidity;BME280_pressure;Samples;Min_cycle;Max_cycle;Signal;HPM_P1;HPM_P2
2022/09/28 00:01:20;;;;;;;;;;;;;;;12.61;61.48;98558.94;4939265;28;6944;-78
2022/09/28 00:03:48;;;;;;;;;;;;;;;12.59;61.67;98558.91;4939557;28;6954;-78
2022/09/28 00:06:19;;;;;;;;;;;;;;;12.59;61.73;98555.44;4937348;28;8437;-78
2022/09/28 00:08:45;;;;;;;;;;;;;;;12.59;61.70;98564.03;4919423;28;6979;-78
2022/09/28 00:11:14;;;;;;;;;;;;;;;12.58;61.91;98554.59;4905018;28;8737;-78
2022/09/28 00:13:44;;;;;;;;;;;;;;;12.59;62.13;98561.47;4919293;28;7695;-77
2022/09/28 00:16:16;;;;;;;;;;;;;;;12.59;61.80;98558.91;4936346;28;7135;-78
2022/09/28 00:18:42;;;;;;;;;;;;;;;12.60;61.31;98552.91;4932470;28;8205;-78
2022/09/28 00:21:15;;;;;;;;;;;;;;;12.62;61.77;98552.94;4938939;28;8525;-77
2022/09/28 00:26:30;;;;;;;;;;;;;;;12.63;62.14;98547.78;4935630;28;6808;-78
2022/09/28 00:28:59;;;;;;;;;;;;;;;12.63;61.33;98547.78;4932397;28;8387;-78
2022/09/28 00:31:31;;;;;;;;;;;;;;;12.67;61.40;98551.25;4934355;28;6958;-77
2022/09/28 00:33:59;;;;;;;;;;;;;;;12.68;61.17;98552.13;4937304;28;7198;-78
2022/09/28 00:36:30;;;;;;;;;;;;;;;12.70;61.00;98558.13;4936580;28;6792;-78
2022/09/28 00:38:57;;;;;;;;;;;;;;;12.72;61.84;98559.00;4922591;29;8453;-78
2022/09/28 00:41:27;;;;;;;;;;;;;;;12.74;61.26;98572.72;4933463;28;6785;-78
2022/09/28 00:44:13;;;;;;;;;;;;;;;12.76;61.86;98571.91;4935522;28;7332;-78
2022/09/28 00:46:40;;;;;;;;;;;;;;;12.81;61.90;98569.38;4918956;29;7447;-77
2022/09/28 00:49:16;;;;;;;;;;;;;;;12.83;61.43;98556.56;4930251;28;6800;-78
2022/09/28 00:51:44;;;;;;;;;;;;;;;12.86;61.65;98562.59;4934561;28;6892;-78
2022/09/28 00:54:14;;;;;;;;;;;;;;;12.89;61.68;98566.88;4919212;28;8528;-77
2022/09/28 00:56:45;;;;;;;;;;;;;;;12.87;61.00;98559.16;4934717;28;6884;-77
2022/09/28 00:59:12;;;;;;;;;;;;;;;12.85;61.19;98563.44;4935301;28;7141;-78
2022/09/28 01:01:37;;;;;;;;;;;;;;;12.84;60.80;98559.13;4934154;28;6824;-77
2022/09/28 01:04:04;;;;;;;;;;;;;;;12.81;60.72;98564.25;4923057;28;8478;-78
2022/09/28 01:06:34;;;;;;;;;;;;;;;12.80;60.87;98559.94;4931124;28;6839;-78
2022/09/28 01:09:06;;;;;;;;;;;;;;;12.78;61.21;98561.66;4933614;28;6817;-77
2022/09/28 01:11:36;;;;;;;;;;;;;;;12.75;61.04;98564.19;4921466;28;8914;-77
2022/09/28 01:14:05;;;;;;;;;;;;;;;12.73;60.94;98559.03;4934475;28;7122;-78
2022/09/28 01:16:59;;;;;;;;;;;;;;;12.72;61.16;98551.31;4920224;28;8414;-78
2022/09/28 01:19:57;;;;;;;;;;;;;;;12.67;61.48;98548.69;4923208;28;7230;-78
2022/09/28 01:22:57;;;;;;;;;;;;;;;12.66;61.32;98553.81;4937595;28;7110;-77
2022/09/28 01:26:19;;;;;;;;;;;;;;;12.63;61.61;98555.50;4938208;28;8208;-77
2022/09/28 01:28:48;;;;;;;;;;;;;;;12.63;62.10;98555.50;4939094;28;7134;-77
2022/09/28 01:31:17;;;;;;;;;;;;;;;12.65;62.25;98558.09;4939231;28;6981;-77
2022/09/28 01:33:55;;;;;;;;;;;;;;;12.67;61.99;98553.81;4935553;28;7293;-77
2022/09/28 01:36:54;;;;;;;;;;;;;;;12.69;61.54;98553.84;4935685;28;7274;-78
2022/09/28 01:39:38;;;;;;;;;;;;;;;12.70;61.88;98545.28;4934708;28;7320;-77
2022/09/28 01:42:18;;;;;;;;;;;;;;;12.68;61.55;98549.56;4926550;28;9533;-77
2022/09/28 01:44:50;;;;;;;;;;;;;;;12.66;60.94;98552.09;4926896;28;7094;-77
2022/09/28 01:47:22;;;;;;;;;;;;;;;12.60;61.36;98552.91;4935328;28;6995;-78
2022/09/28 01:50:13;;;;;;;;;;;;;;;12.56;61.61;98556.31;4933936;28;6865;-78
2022/09/28 01:53:18;;;;;;;;;;;;;;;12.51;61.29;98552.81;4937486;28;7177;-77
2022/09/28 01:55:55;;;;;;;;;;;;;;;12.49;61.42;98554.50;4936781;28;7315;-78
2022/09/28 01:59:05;;;;;;;;;;;;;;;12.46;61.96;98545.06;4938675;28;6808;-77
2022/09/28 02:02:11;;;;;;;;;;;;;;;12.46;61.93;98547.63;4914859;28;7268;-77
2022/09/28 02:05:07;;;;;;;;;;;;;;;12.46;62.33;98547.63;4918380;28;6864;-78
2022/09/28 02:07:45;;;;;;;;;;;;;;;12.47;62.37;98545.94;4927950;28;7003;-81
2022/09/28 02:10:46;;;;;;;;;;;;;;;12.50;62.37;98535.69;4934587;28;8802;-82
2022/09/28 02:14:00;;;;;;;;;;;;;;;12.54;62.53;98534.84;4924094;28;6981;-80
2022/09/28 02:16:53;;;;;;;;;;;;;;;12.58;63.07;98535.75;4915636;28;7146;-79
2022/09/28 02:19:24;;;;;;;;;;;;;;;12.63;62.48;98537.50;4912036;28;8455;-78
2022/09/28 02:21:57;;;;;;;;;;;;;;;12.68;62.62;98547.00;4937623;28;8833;-81
2022/09/28 02:24:39;;;;;;;;;;;;;;;12.73;63.03;98538.47;4936003;28;7324;-81
2022/09/28 02:27:22;;;;;;;;;;;;;;;12.78;62.52;98535.94;4934492;28;6828;-80
2022/09/28 02:29:48;;;;;;;;;;;;;;;12.82;63.27;98537.69;4933774;28;7214;-81
2022/09/28 02:32:18;;;;;;;;;;;;;;;12.87;62.80;98538.59;4932460;28;6952;-79
2022/09/28 02:34:44;;;;;;;;;;;;;;;12.92;62.05;98539.47;4917525;28;7287;-81
2022/09/28 02:37:10;;;;;;;;;;;;;;;12.99;61.92;98542.13;4936440;28;7238;-81
2022/09/28 02:39:35;;;;;;;;;;;;;;;13.02;62.74;98548.16;4937502;28;8441;-80
2022/09/28 02:42:07;;;;;;;;;;;;;;;13.05;62.81;98547.31;4936077;28;7619;-80
2022/09/28 02:44:50;;;;;;;;;;;;;;;13.08;62.52;98546.47;4934293;28;7179;-80
2022/09/28 02:47:49;;;;;;;;;;;;;;;13.08;62.63;98533.59;4934998;28;7193;-80
2022/09/28 02:50:32;;;;;;;;;;;;;;;13.09;62.32;98543.91;4925557;28;7056;-79
2022/09/28 02:53:29;;;;;;;;;;;;;;;13.09;62.74;98540.50;4938276;28;7248;-80
2022/09/28 02:56:32;;;;;;;;;;;;;;;13.06;62.13;98549.03;4934961;28;7186;-81
2022/09/28 02:59:19;;;;;;;;;;;;;;;13.05;62.97;98553.31;4932261;28;6999;-81
2022/09/28 03:02:03;;;;;;;;;;;;;;;13.04;61.70;98554.16;4932331;28;8461;-81
2022/09/28 03:04:37;;;;;;;;;;;;;;;13.05;61.85;98555.03;4937117;28;6921;-80
2022/09/28 03:07:15;;;;;;;;;;;;;;;13.05;62.45;98558.44;4934315;28;7253;-80
2022/09/28 03:10:32;;;;;;;;;;;;;;;13.06;62.47;98554.19;4920044;28;7024;-80
2022/09/28 03:13:00;;;;;;;;;;;;;;;13.05;62.02;98555.03;4920748;28;7056;-79
2022/09/28 03:15:30;;;;;;;;;;;;;;;13.04;62.37;98554.16;4934337;28;6792;-81
2022/09/28 03:17:57;;;;;;;;;;;;;;;13.05;62.30;98557.59;4921497;28;7262;-80
2022/09/28 03:20:25;;;;;;;;;;;;;;;13.06;62.64;98552.47;4932603;28;6934;-79
2022/09/28 03:22:51;;;;;;;;;;;;;;;13.06;61.85;98556.75;4940748;28;7051;-79
2022/09/28 03:25:17;;;;;;;;;;;;;;;13.05;61.74;98558.44;4914684;28;6979;-80
2022/09/28 03:27:43;;;;;;;;;;;;;;;13.05;62.49;98555.88;4921450;28;7215;-79
2022/09/28 03:30:11;;;;;;;;;;;;;;;13.06;62.54;98559.34;4939418;28;7201;-80
2022/09/28 03:32:37;;;;;;;;;;;;;;;13.07;62.27;98553.34;4920366;28;11607;-81
2022/09/28 03:35:05;;;;;;;;;;;;;;;13.06;62.31;98557.59;4902243;28;8529;-79
2022/09/28 03:37:31;;;;;;;;;;;;;;;13.06;61.85;98555.03;4934796;28;7254;-80
2022/09/28 03:39:57;;;;;;;;;;;;;;;13.05;62.27;98555.03;4931680;28;6976;-79
2022/09/28 03:42:23;;;;;;;;;;;;;;;13.06;61.79;98559.34;4918417;28;8530;-80
2022/09/28 03:44:48;;;;;;;;;;;;;;;13.06;61.90;98556.75;4936656;28;7283;-79
2022/09/28 03:47:16;;;;;;;;;;;;;;;13.05;62.19;98557.59;4933897;28;8763;-80
2022/09/28 03:49:44;;;;;;;;;;;;;;;13.05;62.52;98565.31;4934056;28;6816;-80
2022/09/28 03:52:10;;;;;;;;;;;;;;;13.04;61.70;98561.03;4932133;28;7087;-80
2022/09/28 03:54:37;;;;;;;;;;;;;;;13.02;61.61;98560.13;4917602;28;7239;-80
2022/09/28 03:57:02;;;;;;;;;;;;;;;13.01;61.59;98566.13;4929844;28;10018;-80
2022/09/28 03:59:29;;;;;;;;;;;;;;;13.01;61.30;98568.69;4932218;28;6954;-80
2022/09/28 04:01:55;;;;;;;;;;;;;;;13.00;61.32;98566.97;4908674;28;8506;-81
2022/09/28 04:04:21;;;;;;;;;;;;;;;12.97;61.40;98554.94;4929790;28;8195;-81
2022/09/28 04:06:47;;;;;;;;;;;;;;;12.95;61.41;98566.94;4922872;28;7196;-80
2022/09/28 04:09:13;;;;;;;;;;;;;;;12.92;62.25;98569.50;4931543;28;7197;-81
2022/09/28 04:11:39;;;;;;;;;;;;;;;12.89;61.38;98566.88;4934855;28;6780;-80
2022/09/28 04:14:04;;;;;;;;;;;;;;;12.84;61.20;98573.69;4933566;28;6940;-80
2022/09/28 04:16:30;;;;;;;;;;;;;;;12.80;61.35;98572.81;4930499;28;7153;-80
2022/09/28 04:18:57;;;;;;;;;;;;;;;12.72;60.88;98572.75;4933665;28;7238;-80
2022/09/28 04:21:23;;;;;;;;;;;;;;;12.63;61.33;98576.06;4934698;28;7185;-80
2022/09/28 04:23:51;;;;;;;;;;;;;;;12.53;60.82;98569.09;4934349;28;7044;-81
2022/09/28 04:26:23;;;;;;;;;;;;;;;12.45;60.96;98570.72;4933132;28;7211;-81
2022/09/28 04:31:46;;;;;;;;;;;;;;;12.27;60.59;98579.97;4936466;28;6820;-81
2022/09/28 04:34:16;;;;;;;;;;;;;;;12.20;61.17;98579.00;4934424;28;7303;-80
2022/09/28 04:36:45;;;;;;;;;;;;;;;12.15;61.07;98585.81;4934170;28;6812;-80
2022/09/28 04:39:13;;;;;;;;;;;;;;;12.13;61.07;98586.63;4919158;28;7332;-80
2022/09/28 04:41:39;;;;;;;;;;;;;;;12.10;61.45;98590.00;4936331;28;7038;-80
2022/09/28 04:44:06;;;;;;;;;;;;;;;12.09;61.79;98585.72;4934794;28;9027;-80
2022/09/28 04:46:31;;;;;;;;;;;;;;;12.11;61.76;98585.75;4935151;29;7012;-80
2022/09/28 04:48:57;;;;;;;;;;;;;;;12.14;61.75;98585.78;4937454;28;6772;-80
2022/09/28 04:51:23;;;;;;;;;;;;;;;12.16;62.72;98589.22;4932281;28;7011;-81
2022/09/28 04:53:49;;;;;;;;;;;;;;;12.19;62.37;98585.00;4917101;29;7208;-80
2022/09/28 04:56:17;;;;;;;;;;;;;;;12.21;61.72;98593.56;4935720;28;6977;-80
2022/09/28 04:58:43;;;;;;;;;;;;;;;12.23;62.65;98585.88;4935375;28;9033;-81
2022/09/28 05:01:22;;;;;;;;;;;;;;;12.22;62.13;98589.31;4938042;28;6895;-79
2022/09/28 05:03:47;;;;;;;;;;;;;;;12.21;62.18;98585.03;4946633;28;8480;-81
2022/09/28 05:06:14;;;;;;;;;;;;;;;12.17;61.57;98580.69;4929439;28;7022;-81
2022/09/28 05:08:41;;;;;;;;;;;;;;;12.17;62.11;98590.97;4945635;28;6924;-81
2022/09/28 05:11:11;;;;;;;;;;;;;;;12.17;61.93;98590.97;4943506;28;6951;-80
2022/09/28 05:13:44;;;;;;;;;;;;;;;12.16;62.57;98584.97;4931641;28;7262;-80
2022/09/28 05:16:12;;;;;;;;;;;;;;;12.17;62.37;98584.13;4941285;28;8474;-80
2022/09/28 05:18:38;;;;;;;;;;;;;;;12.19;62.38;98589.28;4940049;28;7311;-81
2022/09/28 05:21:10;;;;;;;;;;;;;;;12.20;62.48;98591.84;4926220;28;7028;-80
2022/09/28 05:23:35;;;;;;;;;;;;;;;12.21;61.99;98587.59;4938211;28;8745;-81
2022/09/28 05:26:01;;;;;;;;;;;;;;;12.21;61.89;98590.16;4938119;28;7413;-80
2022/09/28 05:28:29;;;;;;;;;;;;;;;12.19;62.40;98591.84;4936197;28;9487;-80
2022/09/28 05:31:00;;;;;;;;;;;;;;;12.17;62.16;98589.25;4938267;28;8489;-81
2022/09/28 05:33:27;;;;;;;;;;;;;;;12.13;62.17;98591.75;4928837;28;8583;-81
2022/09/28 05:35:54;;;;;;;;;;;;;;;12.10;61.58;98591.72;4937841;28;6958;-81
2022/09/28 05:38:20;;;;;;;;;;;;;;;12.05;61.67;98600.22;4935684;28;7238;-81
2022/09/28 05:40:45;;;;;;;;;;;;;;;12.03;62.13;98599.34;4937847;28;9425;-81
2022/09/28 05:43:11;;;;;;;;;;;;;;;12.01;62.34;98598.44;4937356;28;6772;-80
2022/09/28 05:45:37;;;;;;;;;;;;;;;12.02;62.59;98597.63;4940958;28;6840;-80
2022/09/28 05:48:02;;;;;;;;;;;;;;;12.06;62.81;98599.38;4936311;28;7293;-81
2022/09/28 05:50:28;;;;;;;;;;;;;;;12.12;62.60;98597.75;4932421;28;7372;-81
2022/09/28 05:53:04;;;;;;;;;;;;;;;12.17;62.76;98602.09;4940890;28;7016;-81
2022/09/28 05:55:31;;;;;;;;;;;;;;;12.24;62.84;98603.03;4939349;28;7275;-80
2022/09/28 05:57:59;;;;;;;;;;;;;;;12.28;62.94;98606.50;4924301;28;6848;-80
2022/09/28 06:00:29;;;;;;;;;;;;;;;12.33;62.75;98607.44;4937929;28;6800;-80
2022/09/28 06:03:01;;;;;;;;;;;;;;;12.38;62.76;98604.91;4941065;28;7322;-80
2022/09/28 06:05:28;;;;;;;;;;;;;;;12.41;62.87;98599.81;4939270;28;7239;-80
2022/09/28 06:07:58;;;;;;;;;;;;;;;12.41;62.58;98604.94;4921436;28;6784;-80
2022/09/28 06:10:26;;;;;;;;;;;;;;;12.43;62.64;98603.25;4925667;28;6963;-81
2022/09/28 06:12:55;;;;;;;;;;;;;;;12.43;62.33;98603.25;4921922;28;8666;-80
2022/09/28 06:15:24;;;;;;;;;;;;;;;12.45;62.67;98614.41;4927813;28;6970;-81
2022/09/28 06:18:09;;;;;;;;;;;;;;;12.46;62.35;98616.16;4933134;28;7042;-80
2022/09/28 06:20:40;;;;;;;;;;;;;;;12.45;62.00;98611.84;4938836;28;8501;-82
2022/09/28 06:23:06;;;;;;;;;;;;;;;12.46;61.86;98613.59;4938956;28;6989;-80
2022/09/28 06:25:32;;;;;;;;;;;;;;;12.47;62.63;98615.31;4927727;28;6788;-81
2022/09/28 06:28:07;;;;;;;;;;;;;;;12.51;62.60;98624.75;4938412;28;6780;-81
2022/09/28 06:30:37;;;;;;;;;;;;;;;12.56;63.25;98625.69;4926294;28;8735;-80
2022/09/28 06:33:04;;;;;;;;;;;;;;;12.60;63.05;98622.28;4926376;28;6947;-81
2022/09/28 06:35:31;;;;;;;;;;;;;;;12.68;62.27;98626.66;4934380;28;7307;-81
2022/09/28 06:37:59;;;;;;;;;;;;;;;12.73;62.48;98630.13;4926918;28;6990;-80
2022/09/28 06:40:25;;;;;;;;;;;;;;;12.81;63.22;98622.53;4920507;28;6993;-80
2022/09/28 06:43:00;;;;;;;;;;;;;;;12.89;62.48;98624.31;4934270;28;6796;-82
2022/09/28 06:45:28;;;;;;;;;;;;;;;12.98;62.90;98626.09;4936306;28;6980;-82
2022/09/28 06:48:00;;;;;;;;;;;;;;;13.06;62.09;98629.63;4922014;28;8464;-81
2022/09/28 06:50:33;;;;;;;;;;;;;;;13.13;62.65;98634.81;4937240;28;6874;-82
2022/09/28 06:52:59;;;;;;;;;;;;;;;13.20;62.14;98629.75;4918174;28;8534;-81
2022/09/28 06:55:27;;;;;;;;;;;;;;;13.25;62.55;98629.78;4938774;28;6804;-82
2022/09/28 06:58:02;;;;;;;;;;;;;;;13.32;62.10;98622.97;4919888;28;7189;-82
2022/09/28 07:00:32;;;;;;;;;;;;;;;13.37;62.88;98631.59;4919875;28;6993;-81
2022/09/28 07:03:01;;;;;;;;;;;;;;;13.43;62.01;98630.78;4923859;28;6985;-80
2022/09/28 07:05:27;;;;;;;;;;;;;;;13.50;62.53;98639.44;4921511;28;6977;-81
2022/09/28 07:07:56;;;;;;;;;;;;;;;13.56;61.95;98642.94;4937216;28;7239;-81
2022/09/28 07:10:24;;;;;;;;;;;;;;;13.61;62.30;98642.97;4922775;28;6841;-80
2022/09/28 07:12:51;;;;;;;;;;;;;;;13.65;62.20;98652.44;4932788;28;7201;-81
2022/09/28 07:15:18;;;;;;;;;;;;;;;13.71;61.89;98651.63;4935347;28;7321;-81
2022/09/28 07:17:43;;;;;;;;;;;;;;;13.75;61.50;98659.38;4923992;28;6992;-81
2022/09/28 07:20:09;;;;;;;;;;;;;;;13.80;61.45;98656.84;4925318;28;6955;-82
2022/09/28 07:22:35;;;;;;;;;;;;;;;13.83;61.67;98656.84;4937046;28;6768;-81
2022/09/28 07:25:00;;;;;;;;;;;;;;;13.86;61.14;98658.59;4936529;28;6860;-82
2022/09/28 07:27:27;;;;;;;;;;;;;;;13.87;61.31;98665.47;4935896;28;6996;-80
2022/09/28 07:29:52;;;;;;;;;;;;;;;13.92;61.74;98676.69;4924507;28;9985;-80
2022/09/28 07:32:20;;;;;;;;;;;;;;;13.95;61.30;98668.97;4933409;28;6939;-82
2022/09/28 07:34:47;;;;;;;;;;;;;;;13.99;61.01;98672.41;4936998;28;7243;-82
2022/09/28 07:37:14;;;;;;;;;;;;;;;14.01;61.61;98674.16;4937824;28;6800;-82
2022/09/28 07:42:28;;;;;;;;;;;;;;;14.15;61.30;98674.25;4935250;28;7116;-82
2022/09/28 07:44:57;;;;;;;;;;;;;;;14.26;61.23;98686.31;4919481;28;7286;-81
2022/09/28 07:47:28;;;;;;;;;;;;;;;14.32;61.26;98688.06;4932862;28;7322;-79
2022/09/28 07:49:58;;;;;;;;;;;;;;;14.39;61.12;98682.06;4933024;28;7662;-80
2022/09/28 07:52:25;;;;;;;;;;;;;;;14.45;61.22;98679.53;4935813;28;7064;-80
2022/09/28 07:54:57;;;;;;;;;;;;;;;14.53;61.43;98685.59;4934285;28;7333;-80
2022/09/28 07:57:23;;;;;;;;;;;;;;;14.57;60.88;98687.31;4923856;28;8730;-81
2022/09/28 07:59:52;;;;;;;;;;;;;;;14.65;61.28;98694.22;4933543;28;7177;-81
2022/09/28 08:02:20;;;;;;;;;;;;;;;14.72;60.73;98688.25;4917547;28;6992;-81
2022/09/28 08:04:47;;;;;;;;;;;;;;;14.82;60.70;98697.75;4930023;28;7005;-81
2022/09/28 08:07:17;;;;;;;;;;;;;;;14.88;60.30;98698.66;4917751;28;7085;-79
2022/09/28 08:09:45;;;;;;;;;;;;;;;14.93;59.47;98697.81;4922352;28;8844;-80
2022/09/28 08:12:12;;;;;;;;;;;;;;;14.99;60.06;98704.69;4930737;28;6800;-79
2022/09/28 08:14:38;;;;;;;;;;;;;;;15.08;60.46;98707.31;4935928;28;7205;-80
2022/09/28 08:17:05;;;;;;;;;;;;;;;15.20;60.56;98703.03;4933803;28;6785;-80
2022/09/28 08:22:18;;;;;;;;;;;;;;;15.33;59.66;98709.06;4933487;28;6800;-80
2022/09/28 08:24:48;;;;;;;;;;;;;;;15.33;59.48;98709.91;4931682;28;6962;-80
2022/09/28 08:27:15;;;;;;;;;;;;;;;15.33;58.88;98704.75;4932532;28;7324;-80
2022/09/28 08:29:42;;;;;;;;;;;;;;;15.32;58.57;98700.47;4921611;28;8505;-78
2022/09/28 08:32:09;;;;;;;;;;;;;;;15.34;58.09;98706.47;4919670;28;6980;-81
2022/09/28 08:34:36;;;;;;;;;;;;;;;15.35;58.66;98712.50;4918116;29;6784;-80
2022/09/28 08:37:06;;;;;;;;;;;;;;;15.40;58.78;98711.66;4919585;28;6979;-80
2022/09/28 08:39:33;;;;;;;;;;;;;;;15.45;58.04;98718.53;4921349;29;7272;-79
2022/09/28 08:42:17;;;;;;;;;;;;;;;15.45;57.76;98723.69;4900643;29;7514;-80
2022/09/28 08:44:49;;;;;;;;;;;;;;;15.43;57.67;98726.28;4900782;29;6990;-80
2022/09/28 08:50:27;;;;;;;;;;;;;;;15.52;58.05;98726.31;4916471;29;6808;-79
2022/09/28 08:53:02;;;;;;;;;;;;;;;15.64;58.56;98728.00;4901935;29;6977;-81
2022/09/28 08:55:35;;;;;;;;;;;;;;;15.80;58.45;98731.50;4922576;29;7981;-80
2022/09/28 08:58:16;;;;;;;;;;;;;;;15.96;57.98;98727.19;4926533;29;7829;-79
2022/09/28 09:00:50;;;;;;;;;;;;;;;16.04;57.91;98734.09;4908071;28;7155;-81
2022/09/28 09:03:22;;;;;;;;;;;;;;;16.10;57.43;98739.25;4936249;28;8435;-80
2022/09/28 09:06:34;;;;;;;;;;;;;;;16.21;57.59;98737.50;4931984;28;7258;-80
2022/09/28 09:09:45;;;;;;;;;;;;;;;16.44;57.72;98744.34;4926572;28;8470;-80
2022/09/28 09:12:28;;;;;;;;;;;;;;;16.65;56.80;98737.41;4930400;28;6900;-80
2022/09/28 09:15:12;;;;;;;;;;;;;;;16.85;57.10;98744.22;4917240;28;7223;-81
2022/09/28 09:17:56;;;;;;;;;;;;;;;17.03;56.30;98746.75;4933377;28;7035;-82
2022/09/28 09:20:44;;;;;;;;;;;;;;;17.14;55.32;98740.66;4930985;28;6984;-78
2022/09/28 09:23:42;;;;;;;;;;;;;;;17.25;55.06;98744.06;4937854;28;6820;-79
2022/09/28 09:26:19;;;;;;;;;;;;;;;17.30;54.62;98741.44;4938891;28;6824;-80
2022/09/28 09:29:06;;;;;;;;;;;;;;;17.37;54.17;98739.66;4919694;29;7993;-80
2022/09/28 09:32:02;;;;;;;;;;;;;;;17.46;54.00;98734.41;4937604;28;7356;-79
2022/09/28 09:35:04;;;;;;;;;;;;;;;17.59;53.71;98736.06;4922646;28;6880;-80
2022/09/28 09:37:51;;;;;;;;;;;;;;;17.75;53.73;98726.44;4913859;28;7493;-81
2022/09/28 09:40:32;;;;;;;;;;;;;;;17.94;53.59;98730.59;4933563;28;7266;-79
2022/09/28 09:43:30;;;;;;;;;;;;;;;18.14;53.42;98731.31;4931308;28;6812;-79
2022/09/28 09:46:27;;;;;;;;;;;;;;;18.28;52.34;98732.91;4932530;28;7059;-79
2022/09/28 09:49:19;;;;;;;;;;;;;;;18.33;52.96;98738.91;4924829;28;7022;-79
2022/09/28 09:52:17;;;;;;;;;;;;;;;18.41;52.50;98746.63;4936129;28;8557;-82
2022/09/28 09:54:56;;;;;;;;;;;;;;;18.50;52.51;98748.25;4934243;28;7327;-82
2022/09/28 09:57:29;;;;;;;;;;;;;;;18.58;52.15;98747.28;4939109;28;7286;-79
2022/09/28 10:00:00;;;;;;;;;;;;;;;18.74;52.05;98742.78;4934878;28;6986;-81
2022/09/28 10:02:33;;;;;;;;;;;;;;;18.90;51.55;98746.94;4919728;28;7165;-80
2022/09/28 10:05:28;;;;;;;;;;;;;;;19.11;51.75;98751.88;4934745;28;6984;-79
2022/09/28 10:08:18;;;;;;;;;;;;;;;19.29;50.91;98748.16;4915745;28;6945;-81
2022/09/28 10:10:53;;;;;;;;;;;;;;;19.45;50.71;98749.66;4939199;28;6832;-81
2022/09/28 10:13:18;;;;;;;;;;;;;;;19.57;49.92;98750.34;4923192;28;7010;-80
2022/09/28 10:15:47;;;;;;;;;;;;;;;19.62;49.08;98752.88;4923996;28;7180;-79
2022/09/28 10:18:17;;;;;;;;;;;;;;;19.86;49.82;98745.59;4919569;28;7161;-79
2022/09/28 10:20:43;;;;;;;;;;;;;;;20.34;49.09;98741.31;4907081;28;8041;-82
2022/09/28 10:23:32;;;;;;;;;;;;;;;20.97;48.47;98741.00;4931212;28;6808;-80
2022/09/28 10:26:12;;;;;;;;;;;;;;;21.68;47.42;98734.19;4930814;28;7111;-81
2022/09/28 10:29:00;;;;;;;;;;;;;;;22.36;45.87;98731.63;4924302;28;8470;-80
2022/09/28 10:31:39;;;;;;;;;;;;;;;22.97;44.92;98727.31;4935969;28;7082;-82
2022/09/28 10:34:07;;;;;;;;;;;;;;;23.79;44.72;98731.78;4936259;28;7139;-82
2022/09/28 10:37:09;;;;;;;;;;;;;;;24.46;42.54;98727.78;4935409;28;7334;-80
2022/09/28 10:39:42;;;;;;;;;;;;;;;24.94;41.99;98722.56;4932890;28;6994;-81
2022/09/28 10:42:16;;;;;;;;;;;;;;;25.82;41.69;98723.50;4933842;28;6812;-81
2022/09/28 10:45:18;;;;;;;;;;;;;;;26.44;40.24;98718.25;4936708;28;6879;-81
2022/09/28 10:47:44;;;;;;;;;;;;;;;26.24;39.28;98715.66;4919895;28;9978;-82
2022/09/28 10:50:24;;;;;;;;;;;;;;;25.40;39.63;98732.16;4919852;28;6993;-82
2022/09/28 10:52:50;;;;;;;;;;;;;;;24.75;39.94;98725.84;4935277;28;7862;-81
2022/09/28 10:55:31;;;;;;;;;;;;;;;24.89;40.17;98714.88;4939483;28;7492;-81
2022/09/28 10:57:58;;;;;;;;;;;;;;;25.53;39.85;98709.81;4935106;28;7951;-83
2022/09/28 11:00:42;;;;;;;;;;;;;;;26.39;38.87;98709.72;4919001;28;8535;-79
2022/09/28 11:03:27;;;;;;;;;;;;;;;27.10;37.69;98710.06;4922255;28;7453;-81
2022/09/28 11:05:58;;;;;;;;;;;;;;;27.49;36.97;98703.81;4920938;28;7034;-82
2022/09/28 11:08:36;;;;;;;;;;;;;;;27.44;36.52;98705.81;4935752;28;7103;-81
2022/09/28 11:11:13;;;;;;;;;;;;;;;27.59;36.17;98714.78;4937035;28;6816;-79
2022/09/28 11:14:02;;;;;;;;;;;;;;;27.97;35.80;98708.50;4923650;28;7247;-81
2022/09/28 11:16:34;;;;;;;;;;;;;;;28.42;34.77;98717.59;4936984;28;7388;-81
2022/09/28 11:19:28;;;;;;;;;;;;;;;28.90;33.57;98714.22;4934200;28;7143;-80
2022/09/28 11:21:54;;;;;;;;;;;;;;;28.62;33.90;98722.72;4938310;28;7428;-82
2022/09/28 11:24:24;;;;;;;;;;;;;;;27.77;34.53;98715.63;4920790;28;7270;-83
2022/09/28 11:26:56;;;;;;;;;;;;;;;26.76;34.72;98723.84;4916872;28;8613;-83
2022/09/28 11:29:42;;;;;;;;;;;;;;;26.18;36.03;98725.47;4934798;28;7214;-83
2022/09/28 11:32:10;;;;;;;;;;;;;;;26.24;35.85;98726.16;4932182;28;7242;-81
2022/09/28 11:34:42;;;;;;;;;;;;;;;26.26;35.79;98724.31;4933320;28;7001;-83
2022/09/28 11:37:46;;;;;;;;;;;;;;;25.83;34.91;98722.56;4935595;28;7184;-83
2022/09/28 11:41:11;;;;;;;;;;;;;;;24.86;34.63;98733.31;4939850;28;7189;-82
2022/09/28 11:44:01;;;;;;;;;;;;;;;23.90;35.92;98734.88;4907719;28;7019;-80
2022/09/28 11:46:44;;;;;;;;;;;;;;;23.15;36.18;98737.22;4926232;28;8914;-83
2022/09/28 11:49:42;;;;;;;;;;;;;;;22.45;37.75;98738.31;4935975;28;7060;-83
2022/09/28 11:52:26;;;;;;;;;;;;;;;21.94;37.95;98739.66;4935736;28;6980;-81
2022/09/28 11:55:04;;;;;;;;;;;;;;;21.56;38.40;98739.69;4933469;28;7757;-82
2022/09/28 11:57:37;;;;;;;;;;;;;;;21.44;39.44;98740.81;4930320;28;7279;-83
2022/09/28 12:00:11;;;;;;;;;;;;;;;21.62;39.51;98734.31;4931481;28;7299;-80
2022/09/28 12:02:50;;;;;;;;;;;;;;;21.83;39.85;98739.94;4935142;28;11026;-80
2022/09/28 12:05:33;;;;;;;;;;;;;;;22.17;39.43;98737.31;4930729;28;6990;-82
2022/09/28 12:08:24;;;;;;;;;;;;;;;22.60;38.96;98740.56;4918527;28;7003;-80
2022/09/28 12:10:56;;;;;;;;;;;;;;;22.82;38.06;98739.06;4924928;28;7185;-79
2022/09/28 12:13:33;;;;;;;;;;;;;;;22.80;38.24;98739.13;4934636;28;7428;-81
2022/09/28 12:16:05;;;;;;;;;;;;;;;22.80;37.98;98733.91;4920625;28;7272;-82
2022/09/28 12:18:53;;;;;;;;;;;;;;;22.73;38.42;98735.81;4932106;28;7249;-81
2022/09/28 12:21:55;;;;;;;;;;;;;;;22.61;37.85;98746.63;4934052;28;7257;-83
2022/09/28 12:24:37;;;;;;;;;;;;;;;22.34;37.90;98742.09;4916088;28;7180;-81
2022/09/28 12:27:08;;;;;;;;;;;;;;;22.16;38.49;98740.84;4934728;28;7223;-83
2022/09/28 12:29:46;;;;;;;;;;;;;;;22.10;38.55;98742.72;4933607;28;7216;-81
2022/09/28 12:33:08;;;;;;;;;;;;;;;22.05;38.71;98743.72;4937360;28;7225;-84
2022/09/28 12:36:31;;;;;;;;;;;;;;;21.97;38.70;98742.16;4913933;28;7261;-82
2022/09/28 12:39:12;;;;;;;;;;;;;;;21.82;38.73;98735.59;4936200;28;7436;-82
2022/09/28 12:41:42;;;;;;;;;;;;;;;21.72;38.77;98728.00;4931120;28;7404;-80
2022/09/28 12:44:31;;;;;;;;;;;;;;;21.60;38.98;98725.66;4933501;28;6789;-79
2022/09/28 12:47:33;;;;;;;;;;;;;;;21.42;39.08;98722.59;4937562;28;6875;-79
2022/09/28 12:50:32;;;;;;;;;;;;;;;21.24;39.29;98731.72;4927556;28;8243;-82
2022/09/28 12:53:55;;;;;;;;;;;;;;;20.97;39.24;98735.78;4934986;28;8445;-83
2022/09/28 12:56:33;;;;;;;;;;;;;;;20.66;39.80;98737.22;4916701;28;7367;-78
2022/09/28 12:59:24;;;;;;;;;;;;;;;20.46;40.34;98740.22;4935574;28;7195;-83
2022/09/28 13:02:40;;;;;;;;;;;;;;;20.39;40.46;98740.34;4913010;28;7243;-83
2022/09/28 13:05:15;;;;;;;;;;;;;;;20.31;40.71;98742.22;4939911;28;8737;-80
2022/09/28 13:08:09;;;;;;;;;;;;;;;20.21;40.71;98743.28;4935191;28;7447;-85
2022/09/28 13:10:56;;;;;;;;;;;;;;;20.02;40.93;98735.81;4938529;28;6927;-84
2022/09/28 13:13:44;;;;;;;;;;;;;;;19.81;41.81;98748.25;4934487;28;7361;-80
2022/09/28 13:16:39;;;;;;;;;;;;;;;19.53;41.53;98755.59;4913699;28;8580;-81
2022/09/28 13:19:33;;;;;;;;;;;;;;;19.19;42.42;98759.53;4931166;28;6982;-81
2022/09/28 13:22:44;;;;;;;;;;;;;;;18.70;43.19;98754.06;4932017;28;8331;-81
2022/09/28 13:25:19;;;;;;;;;;;;;;;18.34;44.26;98750.16;4897677;28;7511;-80
2022/09/28 13:28:04;;;;;;;;;;;;;;;18.14;46.72;98751.19;4935644;28;6875;-81
2022/09/28 13:30:35;;;;;;;;;;;;;;;18.13;47.65;98737.38;4934150;28;7044;-81
2022/09/28 13:33:06;;;;;;;;;;;;;;;18.27;48.26;98736.38;4937452;28;6804;-78
2022/09/28 13:35:32;;;;;;;;;;;;;;;18.43;48.60;98735.34;4932703;28;7120;-80
2022/09/28 13:38:19;;;;;;;;;;;;;;;18.59;48.14;98736.03;4939170;28;6856;-79
2022/09/28 13:41:03;;;;;;;;;;;;;;;18.71;48.65;98732.44;4936733;28;7419;-81
2022/09/28 13:43:49;;;;;;;;;;;;;;;18.79;48.76;98734.06;4934959;28;6990;-81
2022/09/28 13:46:58;;;;;;;;;;;;;;;18.81;48.47;98725.41;4924347;28;7139;-79
2022/09/28 13:49:59;;;;;;;;;;;;;;;18.74;47.27;98729.81;4937351;28;7231;-81
2022/09/28 13:52:49;;;;;;;;;;;;;;;18.59;47.33;98735.19;4934776;28;7304;-79
2022/09/28 13:55:32;;;;;;;;;;;;;;;18.47;47.77;98733.56;4936706;28;6992;-82
2022/09/28 13:58:30;;;;;;;;;;;;;;;18.52;48.41;98730.91;4934832;28;7167;-78
2022/09/28 14:01:34;;;;;;;;;;;;;;;18.82;49.19;98729.72;4925989;28;8468;-82